createdAt,value
2019-03-03T00:00:12.969Z,1006.43
2019-03-03T00:01:12.962Z,1006.39
2019-03-03T00:02:12.964Z,1006.41
2019-03-03T00:03:12.989Z,1006.44
2019-03-03T00:04:12.948Z,1006.41
2019-03-03T00:05:12.914Z,1006.41
2019-03-03T00:06:12.915Z,1006.38
2019-03-03T00:07:12.899Z,1006.38
2019-03-03T00:08:12.882Z,1006.37
2019-03-03T00:09:12.878Z,1006.37
2019-03-03T00:10:12.856Z,1006.33
2019-03-03T00:11:12.878Z,1006.33
2019-03-03T00:12:12.833Z,1006.33
2019-03-03T00:13:12.829Z,1006.36
2019-03-03T00:14:12.847Z,1006.36
2019-03-03T00:15:12.807Z,1006.31
2019-03-03T00:16:12.955Z,1006.32
2019-03-03T00:17:12.791Z,1006.31
2019-03-03T00:18:12.768Z,1006.25
2019-03-03T00:19:12.804Z,1006.28
2019-03-03T00:20:13.624Z,1006.24
2019-03-03T00:21:12.754Z,1006.25
2019-03-03T00:22:12.731Z,1006.22
2019-03-03T00:23:12.725Z,1006.23
2019-03-03T00:24:12.711Z,1006.26
2019-03-03T00:25:12.693Z,1006.28
2019-03-03T00:26:12.702Z,1006.18
2019-03-03T00:27:12.709Z,1006.18
2019-03-03T00:28:12.691Z,1006.22
2019-03-03T00:29:12.661Z,1006.27
2019-03-03T00:30:12.645Z,1006.29
2019-03-03T00:31:12.645Z,1006.39
2019-03-03T00:32:12.677Z,1006.39
2019-03-03T00:33:12.647Z,1006.34
2019-03-03T00:34:12.627Z,1006.33
2019-03-03T00:35:12.594Z,1006.33
2019-03-03T00:36:12.610Z,1006.36
2019-03-03T00:37:12.584Z,1006.39
2019-03-03T00:38:12.642Z,1006.37
2019-03-03T00:39:12.556Z,1006.37
2019-03-03T00:40:12.539Z,1006.34
2019-03-03T00:41:12.634Z,1006.34
2019-03-03T00:42:12.510Z,1006.43
2019-03-03T00:43:12.507Z,1006.43
2019-03-03T00:44:12.500Z,1006.38
2019-03-03T00:45:12.495Z,1006.35
2019-03-03T00:46:12.524Z,1006.27
2019-03-03T00:47:12.466Z,1006.29
2019-03-03T00:48:12.473Z,1006.28
2019-03-03T00:49:12.438Z,1006.31
2019-03-03T00:50:12.483Z,1006.28
2019-03-03T00:51:12.428Z,1006.26
2019-03-03T00:52:14.196Z,1006.22
2019-03-03T00:53:12.395Z,1006.16
2019-03-03T00:54:12.502Z,1006.14
2019-03-03T00:55:12.411Z,1006.15
2019-03-03T00:56:12.386Z,1006.16
2019-03-03T00:57:12.361Z,1006.15
2019-03-03T00:58:12.342Z,1006.15
2019-03-03T00:59:12.325Z,1006.14
2019-03-03T01:00:12.312Z,1006.12
2019-03-03T01:01:12.379Z,1006.11
2019-03-03T01:02:12.303Z,1006.11
2019-03-03T01:03:12.290Z,1006.08
2019-03-03T01:04:12.274Z,1006.09
2019-03-03T01:05:12.270Z,1006.08
2019-03-03T01:06:12.269Z,1006.06
2019-03-03T01:07:12.301Z,1006.02
2019-03-03T01:08:12.226Z,1006.06
2019-03-03T01:09:12.263Z,1006.11
2019-03-03T01:10:12.239Z,1006.17
2019-03-03T01:11:12.237Z,1006.14
2019-03-03T01:12:12.191Z,1006.11
2019-03-03T01:13:12.180Z,1006.11
2019-03-03T01:14:12.194Z,1006.10
2019-03-03T01:15:12.178Z,1006.04
2019-03-03T01:16:12.158Z,1006.03
2019-03-03T01:17:12.132Z,1006.02
2019-03-03T01:18:12.123Z,1006.04
2019-03-03T01:19:12.170Z,1006.04
2019-03-03T01:20:12.189Z,1006.05
2019-03-03T01:21:12.099Z,1006.06
2019-03-03T01:22:12.081Z,1006.10
2019-03-03T01:23:12.074Z,1006.08
2019-03-03T01:24:12.072Z,1006.11
2019-03-03T01:25:12.056Z,1006.07
2019-03-03T01:26:12.048Z,1006.08
2019-03-03T01:27:12.051Z,1006.06
2019-03-03T01:28:12.006Z,1006.05
2019-03-03T01:29:12.001Z,1006.10
2019-03-03T01:30:12.014Z,1006.08
2019-03-03T01:31:12.030Z,1006.06
2019-03-03T01:32:12.023Z,1006.04
2019-03-03T01:33:12.056Z,1005.98
2019-03-03T01:34:11.946Z,1005.97
2019-03-03T01:35:11.970Z,1005.91
2019-03-03T01:36:11.939Z,1005.94
2019-03-03T01:37:11.935Z,1005.93
2019-03-03T01:38:11.897Z,1005.91
2019-03-03T01:39:11.889Z,1005.87
2019-03-03T01:40:11.894Z,1005.81
2019-03-03T01:41:11.877Z,1005.87
2019-03-03T01:42:11.894Z,1005.88
2019-03-03T01:43:11.856Z,1005.91
2019-03-03T01:44:11.835Z,1005.88
2019-03-03T01:45:11.822Z,1005.86
2019-03-03T01:46:11.863Z,1005.86
2019-03-03T01:47:11.833Z,1005.86
2019-03-03T01:48:11.799Z,1005.92
2019-03-03T01:49:11.815Z,1005.89
2019-03-03T01:50:11.807Z,1005.95
2019-03-03T01:51:11.756Z,1005.94
2019-03-03T01:52:11.830Z,1005.95
2019-03-03T01:53:11.744Z,1005.88
2019-03-03T01:54:11.856Z,1005.92
2019-03-03T01:55:12.592Z,1005.93
2019-03-03T01:56:11.713Z,1005.93
2019-03-03T01:57:11.708Z,1005.90
2019-03-03T01:58:11.694Z,1005.89
2019-03-03T01:59:11.709Z,1005.89
2019-03-03T02:00:11.687Z,1005.84
2019-03-03T02:01:11.655Z,1005.85
2019-03-03T02:02:11.657Z,1005.82
2019-03-03T02:03:11.628Z,1005.77
2019-03-03T02:04:11.626Z,1005.74
2019-03-03T02:05:11.605Z,1005.69
2019-03-03T02:06:11.614Z,1005.73
2019-03-03T02:07:11.602Z,1005.73
2019-03-03T02:08:11.579Z,1005.67
2019-03-03T02:09:11.562Z,1005.66
2019-03-03T02:10:11.553Z,1005.68
2019-03-03T02:11:11.540Z,1005.66
2019-03-03T02:12:11.577Z,1005.68
2019-03-03T02:13:11.523Z,1005.68
2019-03-03T02:14:11.509Z,1005.65
2019-03-03T02:15:11.492Z,1005.64
2019-03-03T02:16:11.486Z,1005.60
2019-03-03T02:17:11.533Z,1005.61
2019-03-03T02:18:11.492Z,1005.60
2019-03-03T02:19:11.450Z,1005.62
2019-03-03T02:20:11.447Z,1005.61
2019-03-03T02:21:11.452Z,1005.59
2019-03-03T02:22:11.427Z,1005.54
2019-03-03T02:23:11.409Z,1005.54
2019-03-03T02:24:11.440Z,1005.53
2019-03-03T02:25:11.423Z,1005.51
2019-03-03T02:26:11.372Z,1005.49
2019-03-03T02:27:11.430Z,1005.50
2019-03-03T02:28:11.358Z,1005.48
2019-03-03T02:29:11.381Z,1005.44
2019-03-03T02:30:14.346Z,1005.41
2019-03-03T02:31:11.323Z,1005.43
2019-03-03T02:32:11.364Z,1005.37
2019-03-03T02:33:11.308Z,1005.39
2019-03-03T02:34:11.325Z,1005.36
2019-03-03T02:35:11.293Z,1005.36
2019-03-03T02:36:11.303Z,1005.39
2019-03-03T02:37:11.266Z,1005.37
2019-03-03T02:38:11.251Z,1005.32
2019-03-03T02:39:11.233Z,1005.24
2019-03-03T02:40:11.222Z,1005.30
2019-03-03T02:41:11.225Z,1005.29
2019-03-03T02:42:11.242Z,1005.22
2019-03-03T02:43:11.223Z,1005.23
2019-03-03T02:44:13.890Z,1005.21
2019-03-03T02:45:11.164Z,1005.24
2019-03-03T02:46:11.160Z,1005.27
2019-03-03T02:47:11.157Z,1005.23
2019-03-03T02:48:11.183Z,1005.17
2019-03-03T02:49:11.145Z,1005.20
2019-03-03T02:50:11.112Z,1005.25
2019-03-03T02:51:11.106Z,1005.16
2019-03-03T02:52:11.110Z,1005.12
2019-03-03T02:53:11.093Z,1005.00
2019-03-03T02:54:11.074Z,1004.95
2019-03-03T02:55:11.082Z,1004.91
2019-03-03T02:56:11.048Z,1004.91
2019-03-03T02:57:11.065Z,1004.85
2019-03-03T02:58:11.044Z,1004.78
2019-03-03T02:59:11.023Z,1004.78
2019-03-03T03:00:11.009Z,1004.74
2019-03-03T03:01:12.001Z,1004.74
2019-03-03T03:02:10.981Z,1004.75
2019-03-03T03:03:11.024Z,1004.75
2019-03-03T03:04:10.989Z,1004.74
2019-03-03T03:05:10.951Z,1004.71
2019-03-03T03:06:10.954Z,1004.68
2019-03-03T03:07:10.925Z,1004.65
2019-03-03T03:08:10.945Z,1004.68
2019-03-03T03:09:10.910Z,1004.68
2019-03-03T03:10:10.894Z,1004.68
2019-03-03T03:11:10.901Z,1004.68
2019-03-03T03:12:10.870Z,1004.71
2019-03-03T03:13:11.008Z,1004.70
2019-03-03T03:14:10.977Z,1004.74
2019-03-03T03:15:10.846Z,1004.74
2019-03-03T03:16:10.852Z,1004.77
2019-03-03T03:17:10.820Z,1004.75
2019-03-03T03:18:10.831Z,1004.76
2019-03-03T03:19:10.822Z,1004.77
2019-03-03T03:20:10.793Z,1004.77
2019-03-03T03:21:10.805Z,1004.74
2019-03-03T03:22:10.764Z,1004.75
2019-03-03T03:23:10.760Z,1004.74
2019-03-03T03:24:10.744Z,1004.64
2019-03-03T03:25:10.745Z,1004.63
2019-03-03T03:26:10.723Z,1004.63
2019-03-03T03:27:10.720Z,1004.63
2019-03-03T03:28:10.716Z,1004.61
2019-03-03T03:29:10.726Z,1004.61
2019-03-03T03:30:10.701Z,1004.64
2019-03-03T03:31:10.680Z,1004.57
2019-03-03T03:32:10.652Z,1004.58
2019-03-03T03:33:10.714Z,1004.57
2019-03-03T03:34:10.640Z,1004.53
2019-03-03T03:35:10.619Z,1004.49
2019-03-03T03:36:10.616Z,1004.46
2019-03-03T03:37:10.605Z,1004.40
2019-03-03T03:38:10.616Z,1004.38
2019-03-03T03:39:10.584Z,1004.32
2019-03-03T03:40:10.573Z,1004.34
2019-03-03T03:41:10.570Z,1004.25
2019-03-03T03:42:10.545Z,1004.25
2019-03-03T03:43:10.569Z,1004.22
2019-03-03T03:44:10.526Z,1004.18
2019-03-03T03:45:10.519Z,1004.17
2019-03-03T03:46:10.505Z,1004.17
2019-03-03T03:47:10.503Z,1004.22
2019-03-03T03:48:10.493Z,1004.17
2019-03-03T03:49:10.470Z,1004.18
2019-03-03T03:50:10.476Z,1004.18
2019-03-03T03:51:10.479Z,1004.12
2019-03-03T03:52:10.438Z,1004.13
2019-03-03T03:53:10.462Z,1004.18
2019-03-03T03:54:10.451Z,1004.22
2019-03-03T03:55:10.401Z,1004.21
2019-03-03T03:56:10.394Z,1004.21
2019-03-03T03:57:10.393Z,1004.25
2019-03-03T03:58:10.382Z,1004.28
2019-03-03T03:59:10.358Z,1004.24
2019-03-03T04:00:10.358Z,1004.18
2019-03-03T04:01:10.355Z,1004.16
2019-03-03T04:02:10.325Z,1004.14
2019-03-03T04:03:10.327Z,1004.12
2019-03-03T04:04:10.309Z,1004.04
2019-03-03T04:05:10.291Z,1004.11
2019-03-03T04:06:10.358Z,1004.08
2019-03-03T04:07:10.276Z,1004.02
2019-03-03T04:08:10.287Z,1004.06
2019-03-03T04:09:10.267Z,1004.04
2019-03-03T04:10:10.250Z,1004.01
2019-03-03T04:11:10.264Z,1004.01
2019-03-03T04:12:10.282Z,1003.93
2019-03-03T04:13:10.262Z,1003.90
2019-03-03T04:14:10.208Z,1003.89
2019-03-03T04:15:10.199Z,1003.89
2019-03-03T04:16:10.188Z,1003.86
2019-03-03T04:17:10.162Z,1003.87
2019-03-03T04:18:10.165Z,1003.87
2019-03-03T04:19:10.142Z,1003.83
2019-03-03T04:20:10.136Z,1003.82
2019-03-03T04:21:10.120Z,1003.83
2019-03-03T04:22:10.108Z,1003.74
2019-03-03T04:23:10.129Z,1003.78
2019-03-03T04:24:10.093Z,1003.71
2019-03-03T04:25:10.068Z,1003.72
2019-03-03T04:26:10.064Z,1003.81
2019-03-03T04:27:10.045Z,1003.76
2019-03-03T04:28:10.138Z,1003.80
2019-03-03T04:29:10.040Z,1003.75
2019-03-03T04:30:10.014Z,1003.72
2019-03-03T04:31:10.033Z,1003.75
2019-03-03T04:32:10.005Z,1003.71
2019-03-03T04:33:09.981Z,1003.65
2019-03-03T04:34:09.984Z,1003.66
2019-03-03T04:35:09.966Z,1003.65
2019-03-03T04:36:09.949Z,1003.62
2019-03-03T04:37:09.945Z,1003.62
2019-03-03T04:38:09.948Z,1003.59
2019-03-03T04:39:09.939Z,1003.59
2019-03-03T04:40:09.931Z,1003.63
2019-03-03T04:41:09.908Z,1003.60
2019-03-03T04:42:09.915Z,1003.56
2019-03-03T04:43:09.988Z,1003.56
2019-03-03T04:44:09.910Z,1003.56
2019-03-03T04:45:09.859Z,1003.60
2019-03-03T04:46:09.845Z,1003.58
2019-03-03T04:47:09.841Z,1003.56
2019-03-03T04:48:09.816Z,1003.52
2019-03-03T04:49:09.819Z,1003.59
2019-03-03T04:50:09.825Z,1003.62
2019-03-03T04:51:09.791Z,1003.62
2019-03-03T04:52:09.778Z,1003.56
2019-03-03T04:53:09.827Z,1003.56
2019-03-03T04:54:09.783Z,1003.54
2019-03-03T04:55:09.744Z,1003.59
2019-03-03T04:56:09.735Z,1003.59
2019-03-03T04:57:09.717Z,1003.57
2019-03-03T04:58:09.721Z,1003.56
2019-03-03T04:59:09.708Z,1003.56
2019-03-03T05:00:09.712Z,1003.55
2019-03-03T05:01:09.681Z,1003.59
2019-03-03T05:02:09.713Z,1003.58
2019-03-03T05:03:09.776Z,1003.55
2019-03-03T05:04:09.674Z,1003.52
2019-03-03T05:05:09.637Z,1003.52
2019-03-03T05:06:09.622Z,1003.54
2019-03-03T05:07:09.623Z,1003.48
2019-03-03T05:08:09.602Z,1003.51
2019-03-03T05:09:09.602Z,1003.40
2019-03-03T05:10:09.581Z,1003.38
2019-03-03T05:11:09.583Z,1003.41
2019-03-03T05:12:09.557Z,1003.42
2019-03-03T05:13:09.567Z,1003.48
2019-03-03T05:14:09.578Z,1003.41
2019-03-03T05:15:09.525Z,1003.41
2019-03-03T05:16:09.511Z,1003.35
2019-03-03T05:17:09.531Z,1003.34
2019-03-03T05:18:09.488Z,1003.33
2019-03-03T05:19:09.492Z,1003.30
2019-03-03T05:20:09.477Z,1003.30
2019-03-03T05:21:09.463Z,1003.32
2019-03-03T05:22:09.441Z,1003.31
2019-03-03T05:23:09.451Z,1003.25
2019-03-03T05:24:09.441Z,1003.23
2019-03-03T05:25:09.419Z,1003.23
2019-03-03T05:26:09.397Z,1003.18
2019-03-03T05:27:09.390Z,1003.22
2019-03-03T05:28:09.382Z,1003.24
2019-03-03T05:29:09.376Z,1003.24
2019-03-03T05:30:09.376Z,1003.22
2019-03-03T05:31:09.425Z,1003.22
2019-03-03T05:32:09.332Z,1003.17
2019-03-03T05:33:09.318Z,1003.19
2019-03-03T05:34:09.326Z,1003.19
2019-03-03T05:35:09.312Z,1003.19
2019-03-03T05:36:09.310Z,1003.12
2019-03-03T05:37:09.333Z,1003.14
2019-03-03T05:38:09.279Z,1003.10
2019-03-03T05:39:09.276Z,1003.08
2019-03-03T05:40:09.281Z,1003.12
2019-03-03T05:41:09.235Z,1003.08
2019-03-03T05:42:09.238Z,1003.08
2019-03-03T05:43:09.214Z,1003.06
2019-03-03T05:44:09.234Z,1003.01
2019-03-03T05:45:09.208Z,1003.04
2019-03-03T05:46:09.171Z,1003.03
2019-03-03T05:47:09.233Z,1003.07
2019-03-03T05:48:09.170Z,1002.99
2019-03-03T05:49:09.173Z,1002.99
2019-03-03T05:50:09.128Z,1003.04
2019-03-03T05:51:09.135Z,1002.94
2019-03-03T05:52:09.126Z,1002.99
2019-03-03T05:53:09.102Z,1003.05
2019-03-03T05:54:09.113Z,1003.01
2019-03-03T05:55:09.079Z,1003.07
2019-03-03T05:56:09.160Z,1003.00
2019-03-03T05:57:09.057Z,1003.03
2019-03-03T05:58:09.044Z,1003.05
2019-03-03T05:59:09.048Z,1003.05
2019-03-03T06:00:09.049Z,1003.06
2019-03-03T06:01:09.039Z,1003.09
2019-03-03T06:02:08.993Z,1003.07
2019-03-03T06:03:08.994Z,1003.09
2019-03-03T06:04:08.984Z,1003.08
2019-03-03T06:05:09.013Z,1003.12
2019-03-03T06:06:08.956Z,1003.19
2019-03-03T06:07:08.951Z,1003.13
2019-03-03T06:08:08.947Z,1003.16
2019-03-03T06:09:08.972Z,1003.18
2019-03-03T06:10:08.924Z,1003.14
2019-03-03T06:11:08.906Z,1003.09
2019-03-03T06:12:08.898Z,1003.04
2019-03-03T06:13:08.888Z,1003.09
2019-03-03T06:14:08.883Z,1003.09
2019-03-03T06:15:08.934Z,1003.09
2019-03-03T06:16:08.869Z,1003.11
2019-03-03T06:17:08.837Z,1003.08
2019-03-03T06:18:08.825Z,1003.11
2019-03-03T06:19:08.820Z,1003.10
2019-03-03T06:20:08.831Z,1003.08
2019-03-03T06:21:08.855Z,1003.07
2019-03-03T06:22:08.811Z,1003.13
2019-03-03T06:23:08.770Z,1003.07
2019-03-03T06:24:08.755Z,1003.08
2019-03-03T06:25:08.767Z,1003.12
2019-03-03T06:26:08.763Z,1003.07
2019-03-03T06:27:08.731Z,1003.14
2019-03-03T06:28:08.741Z,1003.11
2019-03-03T06:29:08.721Z,1003.09
2019-03-03T06:30:08.718Z,1003.13
2019-03-03T06:31:08.694Z,1003.14
2019-03-03T06:32:08.672Z,1003.11
2019-03-03T06:33:08.693Z,1003.07
2019-03-03T06:34:08.696Z,1003.05
2019-03-03T06:35:08.671Z,1003.03
2019-03-03T06:36:08.626Z,1003.05
2019-03-03T06:37:08.624Z,1003.02
2019-03-03T06:38:08.611Z,1003.05
2019-03-03T06:39:08.592Z,1003.03
2019-03-03T06:40:08.602Z,1003.02
2019-03-03T06:41:08.578Z,1003.05
2019-03-03T06:42:08.567Z,1003.02
2019-03-03T06:43:08.565Z,1002.98
2019-03-03T06:44:08.561Z,1002.95
2019-03-03T06:45:08.547Z,1002.96
2019-03-03T06:46:08.538Z,1002.98
2019-03-03T06:47:08.512Z,1002.94
2019-03-03T06:48:08.492Z,1002.91
2019-03-03T06:49:08.487Z,1002.93
2019-03-03T06:50:08.513Z,1002.91
2019-03-03T06:51:08.474Z,1002.94
2019-03-03T06:52:08.480Z,1002.87
2019-03-03T06:53:08.447Z,1002.87
2019-03-03T06:54:08.426Z,1002.88
2019-03-03T06:55:08.453Z,1002.87
2019-03-03T06:56:08.421Z,1002.87
2019-03-03T06:57:08.406Z,1002.83
2019-03-03T06:58:08.409Z,1002.77
2019-03-03T06:59:08.379Z,1002.82
2019-03-03T07:00:10.139Z,1002.74
2019-03-03T07:01:08.374Z,1002.77
2019-03-03T07:02:08.371Z,1002.77
2019-03-03T07:03:08.362Z,1002.79
2019-03-03T07:04:08.362Z,1002.85
2019-03-03T07:05:08.353Z,1002.88
2019-03-03T07:06:08.364Z,1002.88
2019-03-03T07:07:08.300Z,1002.88
2019-03-03T07:08:08.282Z,1002.86
2019-03-03T07:09:08.349Z,1002.92
2019-03-03T07:10:08.268Z,1002.91
2019-03-03T07:11:09.998Z,1002.87
2019-03-03T07:12:08.235Z,1002.75
2019-03-03T07:13:08.227Z,1002.79
2019-03-03T07:14:08.235Z,1002.81
2019-03-03T07:15:08.245Z,1002.80
2019-03-03T07:16:08.207Z,1002.77
2019-03-03T07:17:08.181Z,1002.76
2019-03-03T07:18:08.166Z,1002.74
2019-03-03T07:19:08.157Z,1002.77
2019-03-03T07:20:08.155Z,1002.73
2019-03-03T07:21:08.129Z,1002.71
2019-03-03T07:22:08.127Z,1002.72
2019-03-03T07:23:08.128Z,1002.69
2019-03-03T07:24:08.109Z,1002.80
2019-03-03T07:25:08.125Z,1002.73
2019-03-03T07:26:08.082Z,1002.77
2019-03-03T07:27:08.074Z,1002.87
2019-03-03T07:28:08.161Z,1002.87
2019-03-03T07:29:08.044Z,1002.91
2019-03-03T07:30:08.065Z,1003.00
2019-03-03T07:31:08.023Z,1002.96
2019-03-03T07:32:08.011Z,1003.00
2019-03-03T07:33:08.040Z,1002.98
2019-03-03T07:34:07.991Z,1002.94
2019-03-03T07:35:07.979Z,1002.98
2019-03-03T07:36:07.997Z,1002.99
2019-03-03T07:37:07.952Z,1002.96
2019-03-03T07:38:07.955Z,1002.96
2019-03-03T07:39:07.931Z,1002.95
2019-03-03T07:40:08.034Z,1002.94
2019-03-03T07:41:07.919Z,1002.95
2019-03-03T07:42:07.895Z,1002.97
2019-03-03T07:43:07.887Z,1002.96
2019-03-03T07:44:07.902Z,1002.94
2019-03-03T07:45:07.875Z,1003.02
2019-03-03T07:46:07.870Z,1002.99
2019-03-03T07:47:07.846Z,1002.95
2019-03-03T07:48:07.845Z,1002.91
2019-03-03T07:49:07.817Z,1003.00
2019-03-03T07:50:07.830Z,1003.01
2019-03-03T07:51:07.813Z,1003.01
2019-03-03T07:52:07.801Z,1003.03
2019-03-03T07:53:07.783Z,1002.95
2019-03-03T07:54:07.761Z,1003.04
2019-03-03T07:55:07.771Z,1003.01
2019-03-03T07:56:07.762Z,1002.99
2019-03-03T07:57:07.734Z,1003.05
2019-03-03T07:58:07.727Z,1003.08
2019-03-03T07:59:07.731Z,1003.05
2019-03-03T08:00:07.696Z,1003.00
2019-03-03T08:01:07.716Z,1003.03
2019-03-03T08:02:07.696Z,1002.99
2019-03-03T08:03:07.668Z,1002.98
2019-03-03T08:04:07.650Z,1003.00
2019-03-03T08:05:07.657Z,1002.97
2019-03-03T08:06:07.648Z,1002.98
2019-03-03T08:07:07.629Z,1003.11
2019-03-03T08:08:07.620Z,1003.07
2019-03-03T08:09:07.634Z,1003.02
2019-03-03T08:10:07.583Z,1002.94
2019-03-03T08:11:07.599Z,1002.97
2019-03-03T08:12:07.571Z,1002.95
2019-03-03T08:13:09.530Z,1002.98
2019-03-03T08:14:07.582Z,1002.95
2019-03-03T08:15:07.567Z,1002.92
2019-03-03T08:16:07.545Z,1002.97
2019-03-03T08:17:07.528Z,1002.88
2019-03-03T08:18:07.504Z,1002.93
2019-03-03T08:19:07.649Z,1002.99
2019-03-03T08:20:07.475Z,1002.88
2019-03-03T08:21:07.485Z,1002.93
2019-03-03T08:22:07.474Z,1002.96
2019-03-03T08:23:07.453Z,1002.96
2019-03-03T08:24:07.436Z,1002.93
2019-03-03T08:25:07.433Z,1002.97
2019-03-03T08:26:07.434Z,1002.99
2019-03-03T08:27:07.403Z,1002.96
2019-03-03T08:28:07.391Z,1003.04
2019-03-03T08:29:07.466Z,1002.92
2019-03-03T08:30:07.378Z,1002.95
2019-03-03T08:31:07.373Z,1002.96
2019-03-03T08:32:07.355Z,1002.99
2019-03-03T08:33:07.330Z,1002.91
2019-03-03T08:34:07.322Z,1002.98
2019-03-03T08:35:07.309Z,1002.99
2019-03-03T08:36:08.132Z,1003.03
2019-03-03T08:37:07.308Z,1002.92
2019-03-03T08:38:07.286Z,1002.92
2019-03-03T08:39:07.270Z,1002.93
2019-03-03T08:40:07.255Z,1002.96
2019-03-03T08:41:07.265Z,1002.94
2019-03-03T08:42:07.253Z,1002.96
2019-03-03T08:43:07.316Z,1002.89
2019-03-03T08:44:07.216Z,1002.93
2019-03-03T08:45:07.206Z,1002.92
2019-03-03T08:46:07.229Z,1002.83
2019-03-03T08:47:07.198Z,1002.82
2019-03-03T08:48:07.171Z,1002.88
2019-03-03T08:49:07.159Z,1002.81
2019-03-03T08:50:07.158Z,1002.91
2019-03-03T08:51:07.152Z,1002.84
2019-03-03T08:52:07.130Z,1002.88
2019-03-03T08:53:08.173Z,1002.95
2019-03-03T08:54:07.111Z,1002.89
2019-03-03T08:55:07.096Z,1002.79
2019-03-03T08:56:07.090Z,1002.79
2019-03-03T08:57:07.079Z,1002.91
2019-03-03T08:58:07.071Z,1002.88
2019-03-03T08:59:07.047Z,1002.91
2019-03-03T09:00:07.031Z,1002.78
2019-03-03T09:01:07.056Z,1002.78
2019-03-03T09:02:07.018Z,1002.79
2019-03-03T09:03:07.011Z,1002.84
2019-03-03T09:04:07.008Z,1002.74
2019-03-03T09:05:07.006Z,1002.77
2019-03-03T09:06:06.977Z,1002.76
2019-03-03T09:07:06.969Z,1002.82
2019-03-03T09:08:06.957Z,1002.79
2019-03-03T09:09:06.976Z,1002.73
2019-03-03T09:10:06.949Z,1002.78
2019-03-03T09:11:06.932Z,1002.80
2019-03-03T09:12:06.929Z,1002.75
2019-03-03T09:13:06.894Z,1002.73
2019-03-03T09:14:06.905Z,1002.75
2019-03-03T09:15:06.886Z,1002.72
2019-03-03T09:16:06.860Z,1002.73
2019-03-03T09:17:06.991Z,1002.84
2019-03-03T09:18:06.862Z,1002.85
2019-03-03T09:19:06.828Z,1002.80
2019-03-03T09:20:06.862Z,1002.78
2019-03-03T09:21:06.809Z,1002.83
2019-03-03T09:22:06.820Z,1002.81
2019-03-03T09:23:06.829Z,1002.82
2019-03-03T09:24:06.772Z,1002.82
2019-03-03T09:25:06.762Z,1002.81
2019-03-03T09:26:06.749Z,1002.80
2019-03-03T09:27:06.769Z,1002.85
2019-03-03T09:28:06.749Z,1002.91
2019-03-03T09:29:06.718Z,1002.95
2019-03-03T09:30:06.714Z,1002.92
2019-03-03T09:31:06.709Z,1002.92
2019-03-03T09:32:06.700Z,1002.95
2019-03-03T09:33:06.683Z,1002.94
2019-03-03T09:34:06.734Z,1002.91
2019-03-03T09:35:06.667Z,1002.77
2019-03-03T09:36:06.649Z,1002.91
2019-03-03T09:37:06.655Z,1002.83
2019-03-03T09:38:06.702Z,1002.82
2019-03-03T09:39:06.613Z,1002.81
2019-03-03T09:40:09.729Z,1002.86
2019-03-03T09:41:06.632Z,1002.94
2019-03-03T09:42:06.633Z,1002.95
2019-03-03T09:43:06.597Z,1003.01
2019-03-03T09:44:06.557Z,1002.93
2019-03-03T09:45:06.550Z,1002.91
2019-03-03T09:46:06.533Z,1002.89
2019-03-03T09:47:06.540Z,1002.91
2019-03-03T09:48:06.515Z,1002.81
2019-03-03T09:49:06.596Z,1002.88
2019-03-03T09:50:06.500Z,1002.83
2019-03-03T09:51:06.490Z,1002.80
2019-03-03T09:52:06.486Z,1002.84
2019-03-03T09:53:06.473Z,1002.81
2019-03-03T09:54:06.447Z,1002.81
2019-03-03T09:55:06.431Z,1002.84
2019-03-03T09:56:06.435Z,1002.74
2019-03-03T09:57:06.439Z,1002.79
2019-03-03T09:58:06.400Z,1002.78
2019-03-03T09:59:06.388Z,1002.70
2019-03-03T10:00:06.381Z,1002.73
2019-03-03T10:01:06.372Z,1002.64
2019-03-03T10:02:06.509Z,1002.79
2019-03-03T10:03:06.761Z,1002.69
2019-03-03T10:04:06.343Z,1002.66
2019-03-03T10:05:06.333Z,1002.65
2019-03-03T10:06:06.311Z,1002.72
2019-03-03T10:07:06.319Z,1002.70
2019-03-03T10:08:06.315Z,1002.65
2019-03-03T10:09:06.281Z,1002.65
2019-03-03T10:10:06.271Z,1002.53
2019-03-03T10:11:06.256Z,1002.55
2019-03-03T10:12:06.265Z,1002.56
2019-03-03T10:13:06.257Z,1002.53
2019-03-03T10:14:06.276Z,1002.49
2019-03-03T10:15:06.224Z,1002.56
2019-03-03T10:16:06.215Z,1002.53
2019-03-03T10:17:06.206Z,1002.47
2019-03-03T10:18:06.181Z,1002.54
2019-03-03T10:19:07.237Z,1002.47
2019-03-03T10:20:06.164Z,1002.50
2019-03-03T10:21:06.147Z,1002.44
2019-03-03T10:22:06.187Z,1002.47
2019-03-03T10:23:06.133Z,1002.40
2019-03-03T10:24:06.124Z,1002.42
2019-03-03T10:25:06.113Z,1002.36
2019-03-03T10:26:06.113Z,1002.36
2019-03-03T10:27:06.112Z,1002.39
2019-03-03T10:28:06.090Z,1002.38
2019-03-03T10:29:06.088Z,1002.41
2019-03-03T10:30:06.079Z,1002.26
2019-03-03T10:31:06.049Z,1002.24
2019-03-03T10:32:06.055Z,1002.19
2019-03-03T10:33:06.037Z,1002.22
2019-03-03T10:34:06.019Z,1002.17
2019-03-03T10:35:06.015Z,1002.23
2019-03-03T10:36:06.014Z,1002.29
2019-03-03T10:37:06.054Z,1002.15
2019-03-03T10:38:05.996Z,1002.23
2019-03-03T10:39:05.960Z,1002.19
2019-03-03T10:40:05.937Z,1002.12
2019-03-03T10:41:05.935Z,1002.14
2019-03-03T10:42:05.929Z,1002.16
2019-03-03T10:43:05.907Z,1002.15
2019-03-03T10:44:05.930Z,1001.99
2019-03-03T10:45:05.893Z,1002.13
2019-03-03T10:46:05.886Z,1002.15
2019-03-03T10:47:05.920Z,1002.10
2019-03-03T10:48:05.866Z,1002.11
2019-03-03T10:49:05.848Z,1002.06
2019-03-03T10:50:05.854Z,1002.11
2019-03-03T10:51:05.849Z,1002.13
2019-03-03T10:52:05.808Z,1002.28
2019-03-03T10:53:05.824Z,1002.07
2019-03-03T10:54:05.805Z,1002.15
2019-03-03T10:55:05.782Z,1002.11
2019-03-03T10:56:05.764Z,1002.12
2019-03-03T10:57:05.771Z,1002.17
2019-03-03T10:58:05.759Z,1002.25
2019-03-03T10:59:05.787Z,1002.25
2019-03-03T11:00:05.798Z,1002.30
2019-03-03T11:01:05.722Z,1002.25
2019-03-03T11:02:05.702Z,1002.20
2019-03-03T11:03:05.752Z,1002.28
2019-03-03T11:04:05.680Z,1002.27
2019-03-03T11:05:06.215Z,1002.30
2019-03-03T11:06:05.662Z,1002.30
2019-03-03T11:07:05.658Z,1002.30
2019-03-03T11:08:05.658Z,1002.19
2019-03-03T11:09:05.660Z,1002.26
2019-03-03T11:10:05.629Z,1002.26
2019-03-03T11:11:05.613Z,1002.25
2019-03-03T11:12:05.601Z,1002.24
2019-03-03T11:13:05.603Z,1002.28
2019-03-03T11:14:05.715Z,1002.30
2019-03-03T11:15:05.564Z,1002.28
2019-03-03T11:16:05.555Z,1002.39
2019-03-03T11:17:05.542Z,1002.31
2019-03-03T11:18:05.540Z,1002.35
2019-03-03T11:19:05.530Z,1002.32
2019-03-03T11:20:05.513Z,1002.37
2019-03-03T11:21:05.509Z,1002.42
2019-03-03T11:22:05.483Z,1002.47
2019-03-03T11:23:05.507Z,1002.34
2019-03-03T11:24:05.553Z,1002.41
2019-03-03T11:25:05.473Z,1002.43
2019-03-03T11:26:05.458Z,1002.36
2019-03-03T11:27:05.453Z,1002.28
2019-03-03T11:28:05.429Z,1002.38
2019-03-03T11:29:05.417Z,1002.25
2019-03-03T11:30:05.409Z,1002.27
2019-03-03T11:31:05.406Z,1002.39
2019-03-03T11:32:05.415Z,1002.38
2019-03-03T11:33:05.425Z,1002.42
2019-03-03T11:34:05.361Z,1002.33
2019-03-03T11:35:05.348Z,1002.34
2019-03-03T11:36:05.334Z,1002.36
2019-03-03T11:37:05.336Z,1002.35
2019-03-03T11:38:05.332Z,1002.24
2019-03-03T11:39:05.319Z,1002.31
2019-03-03T11:40:05.310Z,1002.21
2019-03-03T11:41:05.276Z,1002.19
2019-03-03T11:42:05.393Z,1002.20
2019-03-03T11:43:05.276Z,1002.11
2019-03-03T11:44:05.253Z,1002.08
2019-03-03T11:45:05.257Z,1002.04
2019-03-03T11:46:05.225Z,1002.09
2019-03-03T11:47:05.224Z,1002.00
2019-03-03T11:48:05.221Z,1001.97
2019-03-03T11:49:05.201Z,1001.99
2019-03-03T11:50:05.197Z,1001.96
2019-03-03T11:51:05.166Z,1001.90
2019-03-03T11:52:05.214Z,1001.83
2019-03-03T11:53:05.167Z,1001.92
2019-03-03T11:54:05.191Z,1001.81
2019-03-03T11:55:05.142Z,1001.87
2019-03-03T11:56:05.121Z,1001.72
2019-03-03T11:57:05.105Z,1001.76
2019-03-03T11:58:05.121Z,1001.52
2019-03-03T11:59:05.084Z,1001.52
2019-03-03T12:00:05.070Z,1001.56
2019-03-03T12:01:05.153Z,1001.57
2019-03-03T12:02:05.101Z,1001.52
2019-03-03T12:03:05.077Z,1001.42
2019-03-03T12:04:05.130Z,1001.44
2019-03-03T12:05:05.056Z,1001.48